Latest Weather Observations for Horsham AWS

IDV60801

Issued at 6:05 pm EST Thursday 2 October 2014 (issued every 30 minutes, with the page automatically refreshed every 10 minutes)

About weather observations | Map of weather stations | Latest weather observations for VIC | Other Formats
Station Details ID: 079100 Name: HORSHAM AERODROME Lat: -36.67 Lon: 142.17 Height: 133.8 m
Data from the previous 72 hours. | See also: Recent months at Horsham AWS
Date/Time
EST
Temp
°C
App
Temp
°C
Dew
Point
Rel
Hum
%
Delta-T
°C
Wind Press
QNH
hPa
Press
MSL
hPa
Rain
since 9 am
mm
Dir
 
Spd
km/h
Gust
km/h
Spd
kts
Gust
kts
02/06:00pm 15.8 11.4 7.3 57 4.2 SSW 20 28 11 15 1024.0 1024.0 0.0
02/05:30pm 16.9 12.5 7.3 53 4.8 SW 20 26 11 14 1023.8 1023.8 0.0
02/05:00pm 17.6 13.1 7.1 50 5.3 SW 20 30 11 16 1023.6 1023.6 0.0
02/04:30pm 17.8 13.0 7.2 50 5.4 SSW 22 30 12 16 1023.6 1023.6 0.0
02/04:00pm 18.0 12.3 6.8 48 5.6 SSW 26 35 14 19 1023.7 1023.7 0.0
02/03:30pm 18.4 12.9 7.5 49 5.6 SSW 26 33 14 18 1023.8 1023.8 0.0
02/03:00pm 18.2 12.2 7.0 48 5.6 SSW 28 35 15 19 1024.0 1024.0 0.0
02/02:40pm 18.5 12.6 7.6 49 5.6 SW 28 46 15 25 1024.2 1024.2 0.0
02/02:30pm 18.3 12.7 7.1 48 5.7 SW 26 37 14 20 1024.3 1024.3 0.0
02/02:00pm 18.2 12.5 6.7 47 5.7 SW 26 37 14 20 1024.5 1024.5 0.0
02/01:30pm 17.9 13.0 6.7 48 5.6 SW 22 35 12 19 1024.7 1024.7 0.0
02/01:00pm 17.3 12.0 6.8 50 5.2 SW 24 35 13 19 1025.1 1025.1 0.0
02/12:30pm 16.4 11.9 7.1 54 4.6 SW 20 32 11 17 1025.5 1025.5 0.0
02/12:00pm 15.2 9.6 7.0 58 4.0 SW 26 35 14 19 1026.1 1026.1 0.0
02/11:30am 14.7 9.9 7.5 62 3.6 S 22 30 12 16 1026.3 1026.3 0.0
02/11:00am 13.9 9.3 6.7 62 3.5 SW 20 28 11 15 1026.6 1026.6 0.0
02/10:30am 14.1 8.8 6.9 62 3.5 SW 24 32 13 17 1026.7 1026.7 0.0
02/10:00am 13.4 7.4 7.0 65 3.1 SW 28 37 15 20 1026.7 1026.7 0.0
02/09:30am 13.8 8.5 6.9 63 3.3 SW 24 33 13 18 1026.7 1026.7 0.0
02/09:00am 12.9 7.9 6.3 64 3.1 SW 22 28 12 15 1026.6 1026.6 0.0
02/08:30am 12.1 7.9 5.9 66 2.9 WSW 17 26 9 14 1026.7 1026.7 0.0
02/08:00am 11.5 8.2 6.4 71 2.4 WSW 13 17 7 9 1026.6 1026.6 0.0
02/07:30am 10.7 7.8 6.3 74 2.1 WSW 11 15 6 8 1026.4 1026.4 0.0
02/07:00am 10.1 7.1 6.1 76 1.9 WSW 11 15 6 8 1026.2 1026.2 0.0
02/06:30am 9.6 6.2 6.0 78 1.7 SW 13 17 7 9 1026.0 1026.0 0.0
02/06:00am 9.2 6.2 6.1 81 1.4 WSW 11 17 6 9 1025.9 1025.9 0.0
02/05:30am 8.5 6.4 6.0 84 1.1 WSW 6 7 3 4 1025.8 1025.8 0.0
02/05:00am 8.0 5.7 5.8 86 1.0 SW 7 9 4 5 1025.6 1025.6 0.0
02/04:30am 8.0 4.9 5.5 84 1.1 SW 11 13 6 7 1025.7 1025.7 0.0
02/04:00am 8.1 5.4 5.6 84 1.1 WSW 9 13 5 7 1025.7 1025.7 0.0
02/03:30am 7.2 4.5 5.7 90 0.7 WNW 9 11 5 6 1025.8 1025.8 0.0
02/03:00am 6.2 3.4 5.2 93 0.4 W 9 11 5 6 1025.9 1025.9 0.0
02/02:30am 4.7 1.7 4.0 95 0.3 W 9 11 5 6 1026.0 1026.0 0.0
02/02:00am 3.6 0.4 2.9 95 0.3 W 9 11 5 6 1026.4 1026.4 0.0
02/01:30am 3.4 0.1 2.5 94 0.4 NW 9 11 5 6 1026.7 1026.7 0.0
02/01:00am 2.6 -1.2 1.6 93 0.4 NW 11 11 6 6 1026.8 1026.8 0.0
02/12:30am 3.2 0.3 1.7 90 0.6 WNW 6 7 3 4 1026.8 1026.8 0.0
02/12:00am 5.0 2.2 3.2 88 0.7 WSW 7 7 4 4 1026.9 1026.9 0.0
 
Date/Time
EST
Temp
°C
App
Temp
°C
Dew
Point
Rel
Hum
%
Delta-T
°C
Wind Press
QNH
hPa
Press
MSL
hPa
Rain
since 9 am
mm
Dir
 
Spd
km/h
Gust
km/h
Spd
kts
Gust
kts
01/11:30pm 6.0 2.6 4.2 88 0.8 SW 11 13 6 7 1026.9 1026.9 0.0
01/11:00pm 6.4 2.3 4.4 87 0.9 SW 15 17 8 9 1026.8 1026.8 0.0
01/10:30pm 7.0 3.0 4.7 85 1.0 SW 15 17 8 9 1026.9 1026.9 0.0
01/10:00pm 6.9 3.2 4.2 83 1.2 SW 13 15 7 8 1026.7 1026.7 0.0
01/09:30pm 6.5 3.0 3.7 82 1.2 SW 11 15 6 8 1026.6 1026.6 0.0
01/09:00pm 7.4 3.2 3.6 77 1.6 SW 15 17 8 9 1026.5 1026.5 0.0
01/08:30pm 8.7 4.4 3.5 70 2.3 SW 15 17 8 9 1026.4 1026.4 0.0
01/08:00pm 7.9 4.0 3.2 72 2.0 SSW 13 15 7 8 1026.4 1026.4 0.0
01/07:30pm 8.9 5.0 3.5 69 2.3 SSW 13 15 7 8 1026.1 1026.1 0.0
01/07:00pm 9.7 5.8 3.2 64 2.8 SSW 13 15 7 8 1025.9 1025.9 0.0
01/06:30pm 11.7 7.9 3.7 58 3.6 SSW 13 17 7 9 1025.7 1025.7 0.0
01/06:00pm 13.8 8.6 3.6 50 4.6 SSW 20 28 11 15 1025.5 1025.5 0.0
01/05:30pm 14.7 9.5 3.8 48 5.0 SSW 20 28 11 15 1025.2 1025.2 0.0
01/05:00pm 14.6 9.4 3.4 47 5.1 SW 20 28 11 15 1025.1 1025.1 0.0
01/04:30pm 15.5 9.5 3.3 44 5.6 SW 24 35 13 19 1025.1 1025.1 0.0
01/04:00pm 16.3 9.9 3.0 41 6.1 SW 26 35 14 19 1025.0 1025.0 0.0
01/03:30pm 15.6 9.4 2.1 40 6.0 SW 24 33 13 18 1025.2 1025.2 0.0
01/03:00pm 16.5 10.0 2.5 39 6.3 SW 26 39 14 21 1025.4 1025.4 0.0
01/02:30pm 16.2 9.6 2.2 39 6.3 SW 26 37 14 20 1025.4 1025.4 0.0
01/02:00pm 15.7 9.4 1.8 39 6.1 SW 24 33 13 18 1025.2 1025.2 0.0
01/01:30pm 14.9 8.6 1.8 41 5.8 SW 24 35 13 19 1025.6 1025.6 0.0
01/01:00pm 14.8 8.6 2.4 43 5.5 SW 24 33 13 18 1025.8 1025.8 0.0
01/12:30pm 14.1 7.2 2.7 46 5.1 SW 28 39 15 21 1026.0 1026.0 0.0
01/12:00pm 14.1 7.6 2.7 46 5.1 SW 26 35 14 19 1026.2 1026.2 0.0
01/11:30am 14.2 7.7 2.5 45 5.2 SSW 26 35 14 19 1026.4 1026.4 0.0
01/11:00am 14.2 8.1 2.8 46 5.1 SW 24 37 13 20 1026.3 1026.3 0.0
01/10:30am 14.2 7.8 3.1 47 5.0 SSW 26 35 14 19 1026.4 1026.4 0.0
01/10:00am 12.0 6.1 3.8 57 3.7 SW 24 33 13 18 1026.4 1026.4 0.0
01/09:30am 11.6 5.4 4.3 61 3.3 SW 26 35 14 19 1026.2 1026.3 0.0
01/09:00am 10.4 5.6 4.5 67 2.6 SW 19 26 10 14 1025.9 1026.0 0.8
01/08:30am 8.4 4.0 4.8 78 1.6 WSW 17 22 9 12 1025.6 1025.7 0.8
01/08:00am 6.4 3.5 4.7 89 0.7 W 9 13 5 7 1025.1 1025.2 0.8
01/07:30am 3.8 0.6 3.1 95 0.3 WNW 9 13 5 7 1024.8 1024.9 0.8
01/07:00am 0.9 -2.4 0.2 95 0.3 WNW 7 9 4 5 1024.4 1024.5 0.6
01/06:30am 0.4 -3.3 -0.3 95 0.3 NW 9 9 5 5 1023.9 1024.0 0.6
01/06:00am -0.8 -4.3 -1.6 94 0.2 WNW 7 7 4 4 1023.1 1023.2 0.6
01/05:30am 0.4 -1.6 -0.4 94 0.3 CALM 0 0 0 0 1022.5 1022.6 0.6
01/05:00am -0.3 -2.5 -1.3 93 0.3 CALM 0 2 0 1 1022.1 1022.2 0.6
01/04:30am 0.7 -2.7 -0.4 92 0.4 S 7 11 4 6 1021.7 1021.8 0.6
01/04:00am 2.9 -0.9 1.9 93 0.4 W 11 13 6 7 1021.2 1021.4 0.6
01/03:30am 2.7 -0.8 1.4 91 0.5 WSW 9 13 5 7 1020.9 1021.0 0.6
01/03:00am 3.9 -0.1 2.6 91 0.5 W 13 15 7 8 1020.6 1020.7 0.6
01/02:30am 4.1 0.1 2.8 91 0.5 W 13 17 7 9 1020.4 1020.5 0.6
01/02:00am 4.5 1.0 3.3 92 0.5 W 11 15 6 8 1020.2 1020.3 0.6
01/01:30am 4.8 0.2 3.6 92 0.5 W 17 20 9 11 1019.9 1020.0 0.6
01/01:00am 3.9 -0.5 2.9 93 0.4 W 15 19 8 10 1019.7 1019.8 0.6
01/12:30am 5.1 1.2 3.6 90 0.6 W 13 17 7 9 1019.6 1019.7 0.6
01/12:00am 5.2 0.7 4.0 92 0.5 W 17 19 9 10 1019.4 1019.5 0.6
 
Date/Time
EST
Temp
°C
App
Temp
°C
Dew
Point
Rel
Hum
%
Delta-T
°C
Wind Press
QNH
hPa
Press
MSL
hPa
Rain
since 9 am
mm
Dir
 
Spd
km/h
Gust
km/h
Spd
kts
Gust
kts
30/11:30pm 3.7 -0.3 2.7 93 0.4 W 13 17 7 9 1019.1 1019.2 0.6
30/11:00pm 2.3 -1.7 0.8 90 0.6 WNW 11 13 6 7 1018.7 1018.8 0.6
30/10:30pm 3.1 0.0 1.3 88 0.7 WNW 7 9 4 5 1018.4 1018.5 0.6
30/10:00pm 4.4 1.0 1.8 83 1.0 W 9 9 5 5 1018.1 1018.2 0.6
30/09:30pm 5.5 1.9 2.8 83 1.1 SW 11 13 6 7 1017.8 1017.9 0.6
30/09:00pm 6.6 1.9 3.4 80 1.4 SSW 17 22 9 12 1017.6 1017.7 0.6
30/08:30pm 8.9 3.4 3.9 71 2.2 WSW 22 32 12 17 1017.1 1017.2 0.6
30/08:00pm 8.8 2.9 4.0 72 2.1 W 24 33 13 18 1016.6 1016.7 0.6
30/07:30pm 8.6 3.5 4.2 74 1.9 W 20 28 11 15 1015.9 1016.0 0.6
30/07:08pm 10.3 0.8 4.0 65 2.8 WSW 43 61 23 33 1015.5 1015.6 0.6
30/07:00pm 11.1 0.8 2.7 56 3.7 WSW 46 57 25 31 1015.3 1015.4 0.6
30/06:41pm 11.5 4.6 2.5 54 3.9 WSW 28 50 15 27 1014.6 1014.6 0.6
30/06:30pm 11.9 4.3 2.6 53 4.1 WSW 32 43 17 23 1014.2 1014.2 0.6
30/06:00pm 13.0 4.3 2.0 47 4.8 WSW 37 52 20 28 1013.6 1013.6 0.6
30/05:45pm 13.4 5.1 2.3 47 4.9 W 35 54 19 29 1013.1 1013.2 0.6
30/05:30pm 13.8 4.0 2.1 45 5.2 WSW 43 57 23 31 1012.8 1012.9 0.6
30/05:18pm 14.1 4.9 3.3 48 4.9 WSW 41 59 22 32 1012.6 1012.7 0.6
30/05:00pm 14.1 3.8 2.7 46 5.1 W 46 61 25 33 1012.2 1012.3 0.6
30/04:30pm 15.6 5.6 4.3 47 5.3 W 46 65 25 35 1011.6 1011.7 0.6
30/04:15pm 15.5 7.2 6.0 53 4.6 W 39 59 21 32 1011.1 1011.2 0.6
30/04:00pm 14.2 6.4 6.8 61 3.6 WSW 37 48 20 26 1011.0 1011.1 0.6
30/03:30pm 13.7 6.0 8.7 72 2.5 W 39 59 21 32 1010.8 1010.9 0.6
30/03:00pm 13.3 5.7 9.0 75 2.2 W 39 61 21 33 1010.8 1010.9 0.6
30/02:30pm 11.2 2.4 9.6 90 0.8 WSW 46 70 25 38 1010.8 1010.9 0.6
30/02:00pm 13.3 3.6 10.5 83 1.5 W 52 76 28 41 1009.8 1009.9 0.2
30/01:35pm 14.4 4.3 11.6 83 1.5 W 56 74 30 40 1009.0 1009.1 0.0
30/01:33pm 14.8 3.4 10.4 75 2.3 W 61 74 33 40 1008.9 1009.0 0.0
30/01:30pm 17.7 6.2 8.6 55 4.7 WNW 59 74 32 40 1008.0 1008.0 0.0
30/01:13pm 21.1 9.3 5.9 37 7.6 WNW 57 80 31 43 1007.2 1007.2 0.0
30/01:00pm 19.9 9.2 6.3 41 6.9 WNW 52 67 28 36 1007.6 1007.6 0.0
30/12:30pm 21.1 8.7 4.6 34 8.1 WNW 59 78 32 42 1007.5 1007.5 0.0
30/12:03pm 21.8 10.6 5.7 35 8.1 NW 54 72 29 39 1007.8 1007.8 0.0
30/12:00pm 22.2 10.9 5.2 33 8.5 NW 54 69 29 37 1007.9 1007.9 0.0
30/11:38am 20.6 9.3 5.4 37 7.6 WNW 54 80 29 43 1008.2 1008.2 0.0
30/11:30am 21.5 10.7 5.8 36 7.9 WNW 52 69 28 37 1008.3 1008.3 0.0
30/11:07am 21.3 9.6 5.2 35 8.0 NW 56 74 30 40 1008.5 1008.5 0.0
30/11:00am 21.3 9.5 5.6 36 7.9 NW 57 74 31 40 1008.5 1008.5 0.0
30/10:48am 21.6 11.5 5.9 36 7.9 WNW 48 72 26 39 1008.6 1008.7 0.0
30/10:30am 20.1 10.7 7.1 43 6.7 NW 46 61 25 33 1009.0 1009.1 0.0
30/10:15am 20.7 11.8 7.0 41 7.0 NW 43 61 23 33 1009.2 1009.3 0.0
30/10:00am 19.9 12.9 8.3 47 6.1 NNW 35 48 19 26 1009.5 1009.6 0.0
30/09:30am 17.9 11.6 9.0 56 4.7 NNW 32 41 17 22 1009.9 1010.0 0.0
30/09:00am 16.8 11.1 8.5 58 4.3 NNW 28 35 15 19 1009.9 1010.0 0.0
30/08:30am 14.6 10.8 9.8 73 2.5 N 20 26 11 14 1010.2 1010.3 0.0
30/08:00am 11.4 7.7 10.0 91 0.7 N 20 26 11 14 1010.3 1010.4 0.0
30/07:30am 9.2 5.7 8.7 97 0.2 N 17 20 9 11 1010.4 1010.5 0.0
30/07:00am 7.8 4.3 7.4 97 0.2 N 15 17 8 9 1010.7 1010.8 0.0
30/06:30am 7.4 4.6 7.0 97 0.2 N 11 13 6 7 1010.6 1010.7 0.0
30/06:00am 7.5 4.4 7.2 98 0.1 N 13 17 7 9 1010.5 1010.6 0.0
30/05:30am 5.8 2.3 5.4 97 0.2 N 13 15 7 8 1010.8 1010.9 0.0
30/05:00am 6.1 2.7 5.7 97 0.2 NNW 13 15 7 8 1011.1 1011.2 0.0
30/04:30am 6.0 2.1 5.4 96 0.3 NW 15 17 8 9 1011.1 1011.2 0.0
30/04:00am 5.3 1.6 4.6 95 0.3 NNW 13 15 7 8 1010.8 1010.9 0.0
30/03:30am 5.1 1.4 4.4 95 0.3 NW 13 15 7 8 1011.1 1011.2 0.0
30/03:00am 5.5 1.4 4.6 94 0.4 NNW 15 17 8 9 1011.2 1011.3 0.0
30/02:30am 6.1 2.5 5.1 93 0.4 NNW 13 15 7 8 1011.5 1011.6 0.0
30/02:00am 6.7 3.2 5.5 92 0.5 WNW 13 17 7 9 1011.8 1011.9 0.0
30/01:30am 6.9 3.4 5.5 91 0.6 NW 13 15 7 8 1012.2 1012.3 0.0
30/01:00am 7.2 4.5 5.8 91 0.6 NW 9 11 5 6 1012.4 1012.5 0.0
30/12:30am 6.8 4.4 5.1 89 0.8 NW 7 9 4 5 1012.6 1012.7 0.0
30/12:00am 7.9 5.8 5.7 86 1.0 W 6 7 3 4 1012.8 1012.9 0.0
 
Date/Time
EST
Temp
°C
App
Temp
°C
Dew
Point
Rel
Hum
%
Delta-T
°C
Wind Press
QNH
hPa
Press
MSL
hPa
Rain
since 9 am
mm
Dir
 
Spd
km/h
Gust
km/h
Spd
kts
Gust
kts
29/11:30pm 10.2 8.3 7.6 84 1.3 WSW 7 9 4 5 1012.7 1012.8 0.0
29/11:00pm 10.2 7.9 7.4 83 1.3 WSW 9 11 5 6 1012.8 1012.9 0.0
29/10:30pm 10.3 7.6 7.5 83 1.3 SW 11 13 6 7 1012.9 1013.0 0.0
29/10:00pm 11.4 8.1 7.9 79 1.7 WSW 15 19 8 10 1013.0 1013.1 0.0
29/09:30pm 12.3 8.1 7.4 72 2.4 WSW 19 22 10 12 1013.0 1013.1 0.0
29/09:00pm 11.2 9.1 6.5 73 2.2 NW 7 9 4 5 1012.4 1012.5 0.0
29/08:30pm 11.5 8.7 6.8 73 2.3 NW 11 11 6 6 1012.5 1012.6 0.0
29/08:00pm 12.1 8.9 7.0 71 2.5 NW 13 13 7 7 1012.4 1012.5 0.0
29/07:30pm 13.3 10.2 7.3 67 2.9 NW 13 15 7 8 1012.1 1012.2 0.0
29/07:00pm 14.1 11.0 7.4 64 3.3 NW 13 15 7 8 1011.8 1011.9 0.0
29/06:30pm 16.8 13.4 7.7 55 4.6 NW 15 17 8 9 1011.7 1011.8 0.0

Other Formats:

Comma delimited format used in spreadsheet applications
http://www.bom.gov.au/fwo/IDV60801/IDV60801.95839.axf

JavaScript Object Notation format (JSON) in row-major order
http://www.bom.gov.au/fwo/IDV60801/IDV60801.95839.json